sensor_id;sensor_type;location;lat;lon;timestamp;P1;durP1;ratioP1;P2;durP2;ratioP2
67140;SDS011;54058;52.010;5.546;2023-12-07T00:00:42;22.08;;;10.70;;
67140;SDS011;54058;52.010;5.546;2023-12-07T00:03:08;30.60;;;10.75;;
67140;SDS011;54058;52.010;5.546;2023-12-07T00:05:34;22.63;;;11.20;;
67140;SDS011;54058;52.010;5.546;2023-12-07T00:07:59;22.33;;;11.50;;
67140;SDS011;54058;52.010;5.546;2023-12-07T00:10:25;19.02;;;10.43;;
67140;SDS011;54058;52.010;5.546;2023-12-07T00:12:51;24.25;;;9.75;;
67140;SDS011;54058;52.010;5.546;2023-12-07T00:15:16;22.63;;;11.00;;
67140;SDS011;54058;52.010;5.546;2023-12-07T00:17:42;20.25;;;10.43;;
67140;SDS011;54058;52.010;5.546;2023-12-07T00:20:07;21.50;;;8.98;;
67140;SDS011;54058;52.010;5.546;2023-12-07T00:22:33;16.80;;;9.20;;
67140;SDS011;54058;52.010;5.546;2023-12-07T00:24:59;23.80;;;9.25;;
67140;SDS011;54058;52.010;5.546;2023-12-07T00:27:25;15.30;;;8.32;;
67140;SDS011;54058;52.010;5.546;2023-12-07T00:29:50;14.60;;;7.80;;
67140;SDS011;54058;52.010;5.546;2023-12-07T00:32:16;11.55;;;7.25;;
67140;SDS011;54058;52.010;5.546;2023-12-07T00:34:42;14.32;;;8.00;;
67140;SDS011;54058;52.010;5.546;2023-12-07T00:37:08;18.75;;;9.15;;
67140;SDS011;54058;52.010;5.546;2023-12-07T00:39:34;13.70;;;7.78;;
67140;SDS011;54058;52.010;5.546;2023-12-07T00:42:01;13.77;;;7.65;;
67140;SDS011;54058;52.010;5.546;2023-12-07T00:44:28;14.00;;;7.63;;
67140;SDS011;54058;52.010;5.546;2023-12-07T00:46:53;14.38;;;7.45;;
67140;SDS011;54058;52.010;5.546;2023-12-07T00:49:19;14.20;;;7.72;;
67140;SDS011;54058;52.010;5.546;2023-12-07T00:51:44;10.77;;;7.00;;
67140;SDS011;54058;52.010;5.546;2023-12-07T00:54:10;17.00;;;7.93;;
67140;SDS011;54058;52.010;5.546;2023-12-07T00:56:36;15.20;;;6.90;;
67140;SDS011;54058;52.010;5.546;2023-12-07T00:59:02;10.90;;;6.93;;
67140;SDS011;54058;52.010;5.546;2023-12-07T01:01:28;10.70;;;6.95;;
67140;SDS011;54058;52.010;5.546;2023-12-07T01:03:53;11.52;;;7.28;;
67140;SDS011;54058;52.010;5.546;2023-12-07T01:06:19;13.30;;;6.55;;
67140;SDS011;54058;52.010;5.546;2023-12-07T01:08:44;15.15;;;7.85;;
67140;SDS011;54058;52.010;5.546;2023-12-07T01:11:10;19.35;;;8.77;;
67140;SDS011;54058;52.010;5.546;2023-12-07T01:13:36;31.40;;;10.52;;
67140;SDS011;54058;52.010;5.546;2023-12-07T01:16:01;21.05;;;9.75;;
67140;SDS011;54058;52.010;5.546;2023-12-07T01:18:27;25.10;;;9.35;;
67140;SDS011;54058;52.010;5.546;2023-12-07T01:20:53;24.25;;;9.90;;
67140;SDS011;54058;52.010;5.546;2023-12-07T01:23:18;15.32;;;8.70;;
67140;SDS011;54058;52.010;5.546;2023-12-07T01:25:44;25.13;;;10.10;;
67140;SDS011;54058;52.010;5.546;2023-12-07T01:28:10;21.27;;;9.75;;
67140;SDS011;54058;52.010;5.546;2023-12-07T01:30:35;25.90;;;11.88;;
67140;SDS011;54058;52.010;5.546;2023-12-07T01:33:01;23.42;;;9.52;;
67140;SDS011;54058;52.010;5.546;2023-12-07T01:35:27;27.85;;;10.00;;
67140;SDS011;54058;52.010;5.546;2023-12-07T01:37:53;22.65;;;9.52;;
67140;SDS011;54058;52.010;5.546;2023-12-07T01:40:19;21.67;;;9.40;;
67140;SDS011;54058;52.010;5.546;2023-12-07T01:42:51;28.90;;;11.18;;
67140;SDS011;54058;52.010;5.546;2023-12-07T01:45:18;29.70;;;11.52;;
67140;SDS011;54058;52.010;5.546;2023-12-07T01:47:44;22.13;;;9.82;;
67140;SDS011;54058;52.010;5.546;2023-12-07T01:50:12;25.60;;;10.43;;
67140;SDS011;54058;52.010;5.546;2023-12-07T01:52:45;23.30;;;9.70;;
67140;SDS011;54058;52.010;5.546;2023-12-07T01:55:13;22.25;;;9.80;;
67140;SDS011;54058;52.010;5.546;2023-12-07T01:57:40;23.73;;;10.27;;
67140;SDS011;54058;52.010;5.546;2023-12-07T02:00:08;17.77;;;8.57;;
67140;SDS011;54058;52.010;5.546;2023-12-07T02:02:34;15.43;;;8.67;;
67140;SDS011;54058;52.010;5.546;2023-12-07T02:05:01;17.38;;;7.78;;
67140;SDS011;54058;52.010;5.546;2023-12-07T02:07:27;17.88;;;8.18;;
67140;SDS011;54058;52.010;5.546;2023-12-07T02:09:53;15.30;;;7.85;;
67140;SDS011;54058;52.010;5.546;2023-12-07T02:12:19;16.50;;;7.95;;
67140;SDS011;54058;52.010;5.546;2023-12-07T02:14:45;13.80;;;8.27;;
67140;SDS011;54058;52.010;5.546;2023-12-07T02:20:09;15.85;;;9.40;;
67140;SDS011;54058;52.010;5.546;2023-12-07T02:22:41;13.68;;;8.13;;
67140;SDS011;54058;52.010;5.546;2023-12-07T02:25:13;16.25;;;8.60;;
67140;SDS011;54058;52.010;5.546;2023-12-07T02:27:43;11.88;;;8.10;;
67140;SDS011;54058;52.010;5.546;2023-12-07T02:30:13;14.45;;;8.38;;
67140;SDS011;54058;52.010;5.546;2023-12-07T02:32:40;16.63;;;7.65;;
67140;SDS011;54058;52.010;5.546;2023-12-07T02:35:07;14.30;;;8.13;;
67140;SDS011;54058;52.010;5.546;2023-12-07T02:37:51;11.37;;;7.77;;
67140;SDS011;54058;52.010;5.546;2023-12-07T02:40:19;13.60;;;8.10;;
67140;SDS011;54058;52.010;5.546;2023-12-07T02:42:51;13.88;;;7.93;;
67140;SDS011;54058;52.010;5.546;2023-12-07T02:45:19;15.38;;;8.40;;
67140;SDS011;54058;52.010;5.546;2023-12-07T02:47:45;18.90;;;9.90;;
67140;SDS011;54058;52.010;5.546;2023-12-07T02:50:11;15.90;;;8.98;;
67140;SDS011;54058;52.010;5.546;2023-12-07T02:52:38;22.92;;;9.13;;
67140;SDS011;54058;52.010;5.546;2023-12-07T02:55:04;22.73;;;8.65;;
67140;SDS011;54058;52.010;5.546;2023-12-07T02:57:30;15.02;;;8.38;;
67140;SDS011;54058;52.010;5.546;2023-12-07T02:59:56;17.60;;;8.40;;
67140;SDS011;54058;52.010;5.546;2023-12-07T03:02:21;16.65;;;8.05;;
67140;SDS011;54058;52.010;5.546;2023-12-07T03:04:47;17.13;;;8.57;;
67140;SDS011;54058;52.010;5.546;2023-12-07T03:07:13;13.05;;;7.90;;
67140;SDS011;54058;52.010;5.546;2023-12-07T03:09:39;15.63;;;8.07;;
67140;SDS011;54058;52.010;5.546;2023-12-07T03:12:04;19.60;;;8.68;;
67140;SDS011;54058;52.010;5.546;2023-12-07T03:14:31;19.17;;;8.43;;
67140;SDS011;54058;52.010;5.546;2023-12-07T03:16:57;14.30;;;8.27;;
67140;SDS011;54058;52.010;5.546;2023-12-07T03:19:22;13.20;;;7.95;;
67140;SDS011;54058;52.010;5.546;2023-12-07T03:21:48;19.30;;;8.35;;
67140;SDS011;54058;52.010;5.546;2023-12-07T03:24:13;13.20;;;7.90;;
67140;SDS011;54058;52.010;5.546;2023-12-07T03:26:39;19.70;;;9.07;;
67140;SDS011;54058;52.010;5.546;2023-12-07T03:29:05;17.95;;;8.32;;
67140;SDS011;54058;52.010;5.546;2023-12-07T03:31:31;13.35;;;8.35;;
67140;SDS011;54058;52.010;5.546;2023-12-07T03:33:56;14.07;;;8.45;;
67140;SDS011;54058;52.010;5.546;2023-12-07T03:36:24;18.70;;;8.55;;
67140;SDS011;54058;52.010;5.546;2023-12-07T03:38:49;15.90;;;8.60;;
67140;SDS011;54058;52.010;5.546;2023-12-07T03:41:15;19.45;;;9.23;;
67140;SDS011;54058;52.010;5.546;2023-12-07T03:43:41;18.60;;;8.02;;
67140;SDS011;54058;52.010;5.546;2023-12-07T03:46:06;12.90;;;7.93;;
67140;SDS011;54058;52.010;5.546;2023-12-07T03:48:33;15.88;;;8.45;;
67140;SDS011;54058;52.010;5.546;2023-12-07T03:50:58;13.82;;;8.30;;
67140;SDS011;54058;52.010;5.546;2023-12-07T03:53:24;14.75;;;8.27;;
67140;SDS011;54058;52.010;5.546;2023-12-07T03:55:50;16.70;;;8.23;;
67140;SDS011;54058;52.010;5.546;2023-12-07T03:58:16;15.65;;;7.97;;
67140;SDS011;54058;52.010;5.546;2023-12-07T04:00:41;15.05;;;8.35;;
67140;SDS011;54058;52.010;5.546;2023-12-07T04:03:07;16.08;;;9.65;;
67140;SDS011;54058;52.010;5.546;2023-12-07T04:05:33;24.13;;;9.15;;
67140;SDS011;54058;52.010;5.546;2023-12-07T04:07:59;18.92;;;8.07;;
67140;SDS011;54058;52.010;5.546;2023-12-07T04:10:24;18.52;;;8.93;;
67140;SDS011;54058;52.010;5.546;2023-12-07T04:12:50;16.60;;;9.00;;
67140;SDS011;54058;52.010;5.546;2023-12-07T04:15:17;15.90;;;8.27;;
67140;SDS011;54058;52.010;5.546;2023-12-07T04:17:44;18.45;;;9.32;;
67140;SDS011;54058;52.010;5.546;2023-12-07T04:20:09;16.95;;;9.70;;
67140;SDS011;54058;52.010;5.546;2023-12-07T04:22:36;18.98;;;9.52;;
67140;SDS011;54058;52.010;5.546;2023-12-07T04:25:01;17.35;;;8.95;;
67140;SDS011;54058;52.010;5.546;2023-12-07T04:27:27;18.58;;;9.45;;
67140;SDS011;54058;52.010;5.546;2023-12-07T04:29:52;32.47;;;10.82;;
67140;SDS011;54058;52.010;5.546;2023-12-07T04:32:18;19.80;;;10.82;;
67140;SDS011;54058;52.010;5.546;2023-12-07T04:34:44;19.60;;;10.23;;
67140;SDS011;54058;52.010;5.546;2023-12-07T04:37:10;45.85;;;11.70;;
67140;SDS011;54058;52.010;5.546;2023-12-07T04:39:35;35.38;;;11.38;;
67140;SDS011;54058;52.010;5.546;2023-12-07T04:42:02;24.63;;;10.73;;
67140;SDS011;54058;52.010;5.546;2023-12-07T04:44:28;19.55;;;10.73;;
67140;SDS011;54058;52.010;5.546;2023-12-07T04:46:53;21.20;;;10.38;;
67140;SDS011;54058;52.010;5.546;2023-12-07T04:49:19;26.63;;;10.98;;
67140;SDS011;54058;52.010;5.546;2023-12-07T04:51:45;74.75;;;12.57;;
67140;SDS011;54058;52.010;5.546;2023-12-07T04:54:14;30.40;;;10.67;;
67140;SDS011;54058;52.010;5.546;2023-12-07T04:56:40;32.00;;;10.32;;
67140;SDS011;54058;52.010;5.546;2023-12-07T04:59:06;24.33;;;9.93;;
67140;SDS011;54058;52.010;5.546;2023-12-07T05:01:33;34.42;;;11.43;;
67140;SDS011;54058;52.010;5.546;2023-12-07T05:04:00;40.35;;;11.15;;
67140;SDS011;54058;52.010;5.546;2023-12-07T05:06:28;23.13;;;9.88;;
67140;SDS011;54058;52.010;5.546;2023-12-07T05:08:54;21.98;;;11.23;;
67140;SDS011;54058;52.010;5.546;2023-12-07T05:11:20;50.83;;;12.13;;
67140;SDS011;54058;52.010;5.546;2023-12-07T05:13:45;59.63;;;11.25;;
67140;SDS011;54058;52.010;5.546;2023-12-07T05:16:13;44.97;;;11.15;;
67140;SDS011;54058;52.010;5.546;2023-12-07T05:18:39;80.32;;;12.77;;
67140;SDS011;54058;52.010;5.546;2023-12-07T05:21:04;33.75;;;10.25;;
67140;SDS011;54058;52.010;5.546;2023-12-07T05:23:30;38.90;;;10.43;;
67140;SDS011;54058;52.010;5.546;2023-12-07T05:25:56;32.97;;;11.32;;
67140;SDS011;54058;52.010;5.546;2023-12-07T05:28:21;28.83;;;10.18;;
67140;SDS011;54058;52.010;5.546;2023-12-07T05:30:47;37.45;;;11.07;;
67140;SDS011;54058;52.010;5.546;2023-12-07T05:33:13;34.17;;;10.45;;
67140;SDS011;54058;52.010;5.546;2023-12-07T05:35:39;24.20;;;10.57;;
67140;SDS011;54058;52.010;5.546;2023-12-07T05:38:05;28.33;;;10.27;;
67140;SDS011;54058;52.010;5.546;2023-12-07T05:40:31;37.88;;;10.50;;
67140;SDS011;54058;52.010;5.546;2023-12-07T05:42:57;29.88;;;10.77;;
67140;SDS011;54058;52.010;5.546;2023-12-07T05:45:22;28.73;;;10.45;;
67140;SDS011;54058;52.010;5.546;2023-12-07T05:47:48;17.23;;;9.88;;
67140;SDS011;54058;52.010;5.546;2023-12-07T05:50:14;19.15;;;9.68;;
67140;SDS011;54058;52.010;5.546;2023-12-07T05:52:40;89.95;;;13.23;;
67140;SDS011;54058;52.010;5.546;2023-12-07T05:55:05;59.30;;;11.23;;
67140;SDS011;54058;52.010;5.546;2023-12-07T05:57:31;28.85;;;11.25;;
67140;SDS011;54058;52.010;5.546;2023-12-07T05:59:57;29.05;;;10.13;;
67140;SDS011;54058;52.010;5.546;2023-12-07T06:02:23;38.50;;;10.95;;
67140;SDS011;54058;52.010;5.546;2023-12-07T06:04:50;62.65;;;10.50;;
67140;SDS011;54058;52.010;5.546;2023-12-07T06:07:16;36.78;;;10.05;;
67140;SDS011;54058;52.010;5.546;2023-12-07T06:09:41;15.82;;;9.52;;
67140;SDS011;54058;52.010;5.546;2023-12-07T06:12:07;15.93;;;9.55;;
67140;SDS011;54058;52.010;5.546;2023-12-07T06:14:32;30.02;;;9.18;;
67140;SDS011;54058;52.010;5.546;2023-12-07T06:16:58;25.27;;;9.02;;
67140;SDS011;54058;52.010;5.546;2023-12-07T06:19:24;23.27;;;9.05;;
67140;SDS011;54058;52.010;5.546;2023-12-07T06:21:50;18.25;;;8.85;;
67140;SDS011;54058;52.010;5.546;2023-12-07T06:24:15;15.73;;;8.68;;
67140;SDS011;54058;52.010;5.546;2023-12-07T06:26:41;25.98;;;8.80;;
67140;SDS011;54058;52.010;5.546;2023-12-07T06:29:07;23.63;;;9.02;;
67140;SDS011;54058;52.010;5.546;2023-12-07T06:31:33;22.33;;;8.75;;
67140;SDS011;54058;52.010;5.546;2023-12-07T06:33:59;19.52;;;8.50;;
67140;SDS011;54058;52.010;5.546;2023-12-07T06:36:28;59.10;;;9.35;;
67140;SDS011;54058;52.010;5.546;2023-12-07T06:38:53;14.73;;;8.88;;
67140;SDS011;54058;52.010;5.546;2023-12-07T06:41:23;28.48;;;8.88;;
67140;SDS011;54058;52.010;5.546;2023-12-07T06:43:48;19.50;;;9.05;;
67140;SDS011;54058;52.010;5.546;2023-12-07T06:46:14;23.85;;;8.60;;
67140;SDS011;54058;52.010;5.546;2023-12-07T06:48:41;14.20;;;8.77;;
67140;SDS011;54058;52.010;5.546;2023-12-07T06:51:07;38.03;;;9.07;;
67140;SDS011;54058;52.010;5.546;2023-12-07T06:53:32;21.60;;;8.85;;
67140;SDS011;54058;52.010;5.546;2023-12-07T06:55:58;23.27;;;9.88;;
67140;SDS011;54058;52.010;5.546;2023-12-07T06:58:24;56.65;;;9.50;;
67140;SDS011;54058;52.010;5.546;2023-12-07T07:00:50;26.58;;;8.85;;
67140;SDS011;54058;52.010;5.546;2023-12-07T07:03:16;25.30;;;8.70;;
67140;SDS011;54058;52.010;5.546;2023-12-07T07:05:41;44.42;;;9.98;;
67140;SDS011;54058;52.010;5.546;2023-12-07T07:08:07;29.48;;;8.90;;
67140;SDS011;54058;52.010;5.546;2023-12-07T07:10:33;24.00;;;8.57;;
67140;SDS011;54058;52.010;5.546;2023-12-07T07:13:02;16.20;;;8.88;;
67140;SDS011;54058;52.010;5.546;2023-12-07T07:15:30;26.92;;;8.70;;
67140;SDS011;54058;52.010;5.546;2023-12-07T07:17:56;29.90;;;9.18;;
67140;SDS011;54058;52.010;5.546;2023-12-07T07:20:21;24.40;;;8.60;;
67140;SDS011;54058;52.010;5.546;2023-12-07T07:22:47;20.27;;;8.77;;
67140;SDS011;54058;52.010;5.546;2023-12-07T07:25:13;15.25;;;8.85;;
67140;SDS011;54058;52.010;5.546;2023-12-07T07:27:41;48.33;;;9.48;;
67140;SDS011;54058;52.010;5.546;2023-12-07T07:30:07;29.13;;;8.20;;
67140;SDS011;54058;52.010;5.546;2023-12-07T07:32:33;28.65;;;9.40;;
67140;SDS011;54058;52.010;5.546;2023-12-07T07:34:59;20.80;;;9.18;;
67140;SDS011;54058;52.010;5.546;2023-12-07T07:37:25;16.00;;;9.20;;
67140;SDS011;54058;52.010;5.546;2023-12-07T07:39:51;34.22;;;9.23;;
67140;SDS011;54058;52.010;5.546;2023-12-07T07:42:16;53.10;;;10.05;;
67140;SDS011;54058;52.010;5.546;2023-12-07T07:44:42;35.85;;;9.30;;
67140;SDS011;54058;52.010;5.546;2023-12-07T07:47:08;39.72;;;9.63;;
67140;SDS011;54058;52.010;5.546;2023-12-07T07:49:34;28.77;;;8.85;;
67140;SDS011;54058;52.010;5.546;2023-12-07T07:51:59;16.13;;;8.75;;
67140;SDS011;54058;52.010;5.546;2023-12-07T07:54:25;19.92;;;8.75;;
67140;SDS011;54058;52.010;5.546;2023-12-07T07:56:51;15.30;;;8.43;;
67140;SDS011;54058;52.010;5.546;2023-12-07T07:59:17;22.48;;;8.75;;
67140;SDS011;54058;52.010;5.546;2023-12-07T08:01:43;25.45;;;9.02;;
67140;SDS011;54058;52.010;5.546;2023-12-07T08:04:12;50.55;;;10.10;;
67140;SDS011;54058;52.010;5.546;2023-12-07T08:06:37;23.83;;;8.85;;
67140;SDS011;54058;52.010;5.546;2023-12-07T08:09:03;19.58;;;8.73;;
67140;SDS011;54058;52.010;5.546;2023-12-07T08:11:29;17.48;;;8.95;;
67140;SDS011;54058;52.010;5.546;2023-12-07T08:13:54;16.73;;;9.45;;
67140;SDS011;54058;52.010;5.546;2023-12-07T08:16:20;20.52;;;9.02;;
67140;SDS011;54058;52.010;5.546;2023-12-07T08:18:46;45.10;;;9.82;;
67140;SDS011;54058;52.010;5.546;2023-12-07T08:21:45;60.08;;;10.63;;
67140;SDS011;54058;52.010;5.546;2023-12-07T08:24:04;20.02;;;8.85;;
67140;SDS011;54058;52.010;5.546;2023-12-07T08:26:33;30.60;;;10.90;;
67140;SDS011;54058;52.010;5.546;2023-12-07T08:28:59;23.00;;;9.80;;
67140;SDS011;54058;52.010;5.546;2023-12-07T08:31:24;43.42;;;10.93;;
67140;SDS011;54058;52.010;5.546;2023-12-07T08:33:50;72.95;;;10.23;;
67140;SDS011;54058;52.010;5.546;2023-12-07T08:36:18;28.83;;;11.40;;
67140;SDS011;54058;52.010;5.546;2023-12-07T08:38:43;44.47;;;11.07;;
67140;SDS011;54058;52.010;5.546;2023-12-07T08:41:09;57.83;;;11.40;;
67140;SDS011;54058;52.010;5.546;2023-12-07T08:43:34;35.30;;;9.95;;
67140;SDS011;54058;52.010;5.546;2023-12-07T08:46:00;26.80;;;10.10;;
67140;SDS011;54058;52.010;5.546;2023-12-07T08:48:26;51.03;;;10.23;;
67140;SDS011;54058;52.010;5.546;2023-12-07T08:50:51;41.38;;;11.63;;
67140;SDS011;54058;52.010;5.546;2023-12-07T08:53:17;19.17;;;8.98;;
67140;SDS011;54058;52.010;5.546;2023-12-07T08:55:43;22.38;;;10.70;;
67140;SDS011;54058;52.010;5.546;2023-12-07T08:58:08;65.20;;;10.10;;
67140;SDS011;54058;52.010;5.546;2023-12-07T09:00:35;55.33;;;9.07;;
67140;SDS011;54058;52.010;5.546;2023-12-07T09:03:01;23.33;;;8.30;;
67140;SDS011;54058;52.010;5.546;2023-12-07T09:05:27;16.50;;;8.52;;
67140;SDS011;54058;52.010;5.546;2023-12-07T09:07:53;34.15;;;9.13;;
67140;SDS011;54058;52.010;5.546;2023-12-07T09:10:19;23.08;;;8.07;;
67140;SDS011;54058;52.010;5.546;2023-12-07T09:12:44;17.83;;;9.02;;
67140;SDS011;54058;52.010;5.546;2023-12-07T09:15:10;19.30;;;8.38;;
67140;SDS011;54058;52.010;5.546;2023-12-07T09:17:36;22.13;;;9.50;;
67140;SDS011;54058;52.010;5.546;2023-12-07T09:20:07;16.05;;;7.70;;
67140;SDS011;54058;52.010;5.546;2023-12-07T09:22:42;13.70;;;7.18;;
67140;SDS011;54058;52.010;5.546;2023-12-07T09:25:11;14.00;;;7.28;;
67140;SDS011;54058;52.010;5.546;2023-12-07T09:27:40;33.38;;;7.05;;
67140;SDS011;54058;52.010;5.546;2023-12-07T09:30:07;22.05;;;7.38;;
67140;SDS011;54058;52.010;5.546;2023-12-07T09:32:39;20.77;;;7.28;;
67140;SDS011;54058;52.010;5.546;2023-12-07T09:35:07;10.57;;;6.43;;
67140;SDS011;54058;52.010;5.546;2023-12-07T09:37:40;22.90;;;6.78;;
67140;SDS011;54058;52.010;5.546;2023-12-07T09:40:06;12.27;;;6.88;;
67140;SDS011;54058;52.010;5.546;2023-12-07T09:42:32;24.63;;;6.72;;
67140;SDS011;54058;52.010;5.546;2023-12-07T09:44:58;11.38;;;6.50;;
67140;SDS011;54058;52.010;5.546;2023-12-07T09:47:26;11.18;;;6.43;;
67140;SDS011;54058;52.010;5.546;2023-12-07T09:49:52;11.20;;;7.25;;
67140;SDS011;54058;52.010;5.546;2023-12-07T09:52:18;12.48;;;6.75;;
67140;SDS011;54058;52.010;5.546;2023-12-07T09:54:46;23.13;;;6.78;;
67140;SDS011;54058;52.010;5.546;2023-12-07T09:57:12;10.13;;;6.20;;
67140;SDS011;54058;52.010;5.546;2023-12-07T09:59:39;13.32;;;6.47;;
67140;SDS011;54058;52.010;5.546;2023-12-07T10:04:32;11.15;;;6.18;;
67140;SDS011;54058;52.010;5.546;2023-12-07T10:06:58;30.98;;;6.63;;
67140;SDS011;54058;52.010;5.546;2023-12-07T10:09:24;32.15;;;6.75;;
67140;SDS011;54058;52.010;5.546;2023-12-07T10:11:53;15.18;;;6.13;;
67140;SDS011;54058;52.010;5.546;2023-12-07T10:14:28;12.85;;;7.15;;
67140;SDS011;54058;52.010;5.546;2023-12-07T10:16:54;18.35;;;6.72;;
67140;SDS011;54058;52.010;5.546;2023-12-07T10:19:20;11.03;;;6.43;;
67140;SDS011;54058;52.010;5.546;2023-12-07T10:21:53;11.23;;;6.38;;
67140;SDS011;54058;52.010;5.546;2023-12-07T10:24:20;12.85;;;6.93;;
67140;SDS011;54058;52.010;5.546;2023-12-07T10:29:13;14.95;;;6.82;;
67140;SDS011;54058;52.010;5.546;2023-12-07T10:31:39;16.95;;;7.30;;
67140;SDS011;54058;52.010;5.546;2023-12-07T10:34:05;15.95;;;7.40;;
67140;SDS011;54058;52.010;5.546;2023-12-07T10:36:31;13.50;;;6.10;;
67140;SDS011;54058;52.010;5.546;2023-12-07T10:38:57;13.38;;;6.35;;
67140;SDS011;54058;52.010;5.546;2023-12-07T10:41:24;19.75;;;6.25;;
67140;SDS011;54058;52.010;5.546;2023-12-07T10:43:54;17.08;;;6.72;;
67140;SDS011;54058;52.010;5.546;2023-12-07T10:46:24;16.02;;;6.82;;
67140;SDS011;54058;52.010;5.546;2023-12-07T10:48:51;21.00;;;6.50;;
67140;SDS011;54058;52.010;5.546;2023-12-07T10:54:17;15.90;;;6.90;;
67140;SDS011;54058;52.010;5.546;2023-12-07T10:56:47;25.80;;;7.43;;
67140;SDS011;54058;52.010;5.546;2023-12-07T11:01:41;16.27;;;7.60;;
67140;SDS011;54058;52.010;5.546;2023-12-07T11:04:08;20.38;;;7.88;;
67140;SDS011;54058;52.010;5.546;2023-12-07T11:06:37;12.50;;;6.68;;
67140;SDS011;54058;52.010;5.546;2023-12-07T11:09:05;18.02;;;7.53;;
67140;SDS011;54058;52.010;5.546;2023-12-07T11:11:45;18.80;;;7.25;;
67140;SDS011;54058;52.010;5.546;2023-12-07T11:14:17;18.50;;;8.80;;
67140;SDS011;54058;52.010;5.546;2023-12-07T11:16:45;46.33;;;9.38;;
67140;SDS011;54058;52.010;5.546;2023-12-07T11:22:01;16.27;;;7.68;;
67140;SDS011;54058;52.010;5.546;2023-12-07T11:24:34;20.55;;;9.20;;
67140;SDS011;54058;52.010;5.546;2023-12-07T11:27:01;20.80;;;8.25;;
67140;SDS011;54058;52.010;5.546;2023-12-07T11:29:30;39.45;;;9.57;;
67140;SDS011;54058;52.010;5.546;2023-12-07T11:32:03;24.33;;;9.10;;
67140;SDS011;54058;52.010;5.546;2023-12-07T11:34:40;18.20;;;9.23;;
67140;SDS011;54058;52.010;5.546;2023-12-07T11:37:06;19.13;;;9.70;;
67140;SDS011;54058;52.010;5.546;2023-12-07T11:39:40;20.33;;;10.20;;
67140;SDS011;54058;52.010;5.546;2023-12-07T11:42:16;24.40;;;10.55;;
67140;SDS011;54058;52.010;5.546;2023-12-07T11:44:48;23.50;;;11.27;;
67140;SDS011;54058;52.010;5.546;2023-12-07T11:47:15;21.20;;;9.85;;
67140;SDS011;54058;52.010;5.546;2023-12-07T11:49:42;19.75;;;9.40;;
67140;SDS011;54058;52.010;5.546;2023-12-07T11:52:18;21.85;;;10.07;;
67140;SDS011;54058;52.010;5.546;2023-12-07T11:54:48;20.20;;;10.13;;
67140;SDS011;54058;52.010;5.546;2023-12-07T11:57:15;23.85;;;11.07;;
67140;SDS011;54058;52.010;5.546;2023-12-07T11:59:43;22.52;;;11.55;;
67140;SDS011;54058;52.010;5.546;2023-12-07T12:02:12;18.65;;;9.27;;
67140;SDS011;54058;52.010;5.546;2023-12-07T12:04:39;19.50;;;9.40;;
67140;SDS011;54058;52.010;5.546;2023-12-07T12:07:05;24.15;;;11.13;;
67140;SDS011;54058;52.010;5.546;2023-12-07T12:09:31;21.45;;;10.27;;
67140;SDS011;54058;52.010;5.546;2023-12-07T12:11:59;23.25;;;10.52;;
67140;SDS011;54058;52.010;5.546;2023-12-07T12:14:25;21.45;;;10.18;;
67140;SDS011;54058;52.010;5.546;2023-12-07T12:16:51;21.83;;;11.20;;
67140;SDS011;54058;52.010;5.546;2023-12-07T12:19:17;19.02;;;9.30;;
67140;SDS011;54058;52.010;5.546;2023-12-07T12:21:43;21.10;;;10.60;;
67140;SDS011;54058;52.010;5.546;2023-12-07T12:24:10;21.70;;;10.35;;
67140;SDS011;54058;52.010;5.546;2023-12-07T12:26:36;22.77;;;10.93;;
67140;SDS011;54058;52.010;5.546;2023-12-07T12:29:05;19.48;;;10.00;;
67140;SDS011;54058;52.010;5.546;2023-12-07T12:31:32;20.67;;;10.98;;
67140;SDS011;54058;52.010;5.546;2023-12-07T12:33:57;18.52;;;10.52;;
67140;SDS011;54058;52.010;5.546;2023-12-07T12:36:26;19.38;;;10.02;;
67140;SDS011;54058;52.010;5.546;2023-12-07T12:38:53;22.17;;;10.63;;
67140;SDS011;54058;52.010;5.546;2023-12-07T12:41:21;20.70;;;11.48;;
67140;SDS011;54058;52.010;5.546;2023-12-07T12:43:47;19.33;;;10.65;;
67140;SDS011;54058;52.010;5.546;2023-12-07T12:46:14;20.15;;;12.15;;
67140;SDS011;54058;52.010;5.546;2023-12-07T12:48:56;19.98;;;11.75;;
67140;SDS011;54058;52.010;5.546;2023-12-07T12:51:24;19.17;;;10.52;;
67140;SDS011;54058;52.010;5.546;2023-12-07T12:53:55;17.13;;;9.95;;
67140;SDS011;54058;52.010;5.546;2023-12-07T12:56:21;26.45;;;13.15;;
67140;SDS011;54058;52.010;5.546;2023-12-07T12:58:51;25.45;;;12.18;;
67140;SDS011;54058;52.010;5.546;2023-12-07T13:01:17;23.63;;;13.13;;
67140;SDS011;54058;52.010;5.546;2023-12-07T13:03:44;24.88;;;14.02;;
67140;SDS011;54058;52.010;5.546;2023-12-07T13:06:13;25.05;;;13.80;;
67140;SDS011;54058;52.010;5.546;2023-12-07T13:08:49;26.80;;;13.82;;
67140;SDS011;54058;52.010;5.546;2023-12-07T13:11:18;25.42;;;13.77;;
67140;SDS011;54058;52.010;5.546;2023-12-07T13:13:44;30.77;;;14.82;;
67140;SDS011;54058;52.010;5.546;2023-12-07T13:16:12;32.13;;;13.77;;
67140;SDS011;54058;52.010;5.546;2023-12-07T13:18:39;30.20;;;14.18;;
67140;SDS011;54058;52.010;5.546;2023-12-07T13:21:05;27.15;;;14.55;;
67140;SDS011;54058;52.010;5.546;2023-12-07T13:23:31;23.67;;;13.93;;
67140;SDS011;54058;52.010;5.546;2023-12-07T13:25:56;23.60;;;13.40;;
67140;SDS011;54058;52.010;5.546;2023-12-07T13:28:22;34.03;;;15.43;;
67140;SDS011;54058;52.010;5.546;2023-12-07T13:30:48;27.73;;;14.43;;
67140;SDS011;54058;52.010;5.546;2023-12-07T13:33:13;29.35;;;14.77;;
67140;SDS011;54058;52.010;5.546;2023-12-07T13:35:39;31.63;;;14.48;;
67140;SDS011;54058;52.010;5.546;2023-12-07T13:38:05;28.80;;;14.77;;
67140;SDS011;54058;52.010;5.546;2023-12-07T13:40:30;29.35;;;13.57;;
67140;SDS011;54058;52.010;5.546;2023-12-07T13:42:56;27.80;;;14.25;;
67140;SDS011;54058;52.010;5.546;2023-12-07T13:45:22;29.23;;;14.75;;
67140;SDS011;54058;52.010;5.546;2023-12-07T13:47:47;30.73;;;14.57;;
67140;SDS011;54058;52.010;5.546;2023-12-07T13:50:13;31.40;;;15.23;;
67140;SDS011;54058;52.010;5.546;2023-12-07T13:52:39;27.17;;;14.02;;
67140;SDS011;54058;52.010;5.546;2023-12-07T13:55:04;30.60;;;14.63;;
67140;SDS011;54058;52.010;5.546;2023-12-07T13:57:30;30.77;;;15.65;;
67140;SDS011;54058;52.010;5.546;2023-12-07T13:59:56;28.52;;;13.93;;
67140;SDS011;54058;52.010;5.546;2023-12-07T14:02:22;31.65;;;14.75;;
67140;SDS011;54058;52.010;5.546;2023-12-07T14:04:49;29.30;;;14.10;;
67140;SDS011;54058;52.010;5.546;2023-12-07T14:07:15;29.05;;;15.05;;
67140;SDS011;54058;52.010;5.546;2023-12-07T14:09:43;31.38;;;15.38;;
67140;SDS011;54058;52.010;5.546;2023-12-07T14:12:10;28.88;;;14.68;;
67140;SDS011;54058;52.010;5.546;2023-12-07T14:14:41;28.58;;;14.07;;
67140;SDS011;54058;52.010;5.546;2023-12-07T14:17:09;33.35;;;14.85;;
67140;SDS011;54058;52.010;5.546;2023-12-07T14:19:35;32.95;;;15.30;;
67140;SDS011;54058;52.010;5.546;2023-12-07T14:22:01;27.38;;;14.20;;
67140;SDS011;54058;52.010;5.546;2023-12-07T14:24:27;25.92;;;13.32;;
67140;SDS011;54058;52.010;5.546;2023-12-07T14:29:21;32.40;;;13.35;;
67140;SDS011;54058;52.010;5.546;2023-12-07T14:31:47;30.35;;;13.45;;
67140;SDS011;54058;52.010;5.546;2023-12-07T14:34:14;28.73;;;13.82;;
67140;SDS011;54058;52.010;5.546;2023-12-07T14:36:40;35.72;;;15.90;;
67140;SDS011;54058;52.010;5.546;2023-12-07T14:39:09;30.15;;;15.80;;
67140;SDS011;54058;52.010;5.546;2023-12-07T14:41:45;32.88;;;15.82;;
67140;SDS011;54058;52.010;5.546;2023-12-07T14:44:12;34.17;;;17.35;;